Terminal Aerodrome Forecast
Issued by NWS

Home | Current Version | Previous Version | Text Only | Print | Product List | Glossary On
Versions: 1 2 3 4 5 6 7 8 9 10 11 12 13 14 15
000
FTUS45 KRIW 280500
TAFCPR
TAF
KCPR 280538Z 2806/2906 24007KT P6SM SCT080
     FM281800 29009KT P6SM VCSH SCT050 BKN080
     FM282300 VRB12G18KT P6SM VCTS SCT040 BKN070CB
     FM290400 03008KT P6SM VCSH SCT035 BKN060=

USA.gov is the U.S. government's official web portal to all federal, state and local government web resources and services.